Time;durP1;ratioP1;P1;durP2;ratioP2;P2;SDS_P1;SDS_P2;PMS_P1;PMS_P2;Temp;Humidity;BMP_temperature;BMP_pressure;BME280_temperature;BME280_humidity;BME280_pressure;Samples;Min_cycle;Max_cycle;Signal;HPM_P1;HPM_P2
2023/10/19 00:00:48;;;;;;;3.95;3.05;;;;;;;20.58;43.33;99674.84;5022576;28;20160;-65
2023/10/19 00:03:15;;;;;;;3.83;3.30;;;;;;;20.57;43.38;99672.41;5029039;28;20547;-65
2023/10/19 00:05:41;;;;;;;3.40;3.10;;;;;;;20.52;43.39;99673.06;5035783;28;20060;-65
2023/10/19 00:08:15;;;;;;;4.38;3.20;;;;;;;20.55;43.26;99667.34;5027324;28;20033;-66
2023/10/19 00:10:47;;;;;;;3.63;3.17;;;;;;;20.51;43.51;99658.22;5025570;28;20133;-65
2023/10/19 00:13:14;;;;;;;3.85;3.15;;;;;;;20.49;43.33;99655.78;5024819;28;20035;-65
2023/10/19 00:15:46;;;;;;;4.25;3.13;;;;;;;20.52;43.37;99649.25;5028557;28;20038;-64
2023/10/19 00:23:13;;;;;;;4.22;3.17;;;;;;;20.45;43.18;99622.03;5025963;28;20658;-64
2023/10/19 00:25:41;;;;;;;3.92;3.50;;;;;;;20.45;43.36;99616.75;5027037;28;20502;-65
2023/10/19 00:28:08;;;;;;;5.28;3.53;;;;;;;20.47;43.45;99612.88;5022085;28;20756;-64
2023/10/19 00:30:35;;;;;;;4.50;3.50;;;;;;;20.45;43.48;99612.25;5029175;28;20478;-65
2023/10/19 00:33:09;;;;;;;4.28;3.33;;;;;;;20.45;43.33;99608.81;5024758;28;20080;-65
2023/10/19 00:35:35;;;;;;;4.07;3.13;;;;;;;20.40;43.47;99604.13;5026298;28;20036;-65
2023/10/19 00:38:21;;;;;;;4.00;3.22;;;;;;;20.41;43.39;99594.41;5022337;28;20060;-65
2023/10/19 00:40:52;;;;;;;4.47;3.65;;;;;;;20.45;43.38;99603.53;5022491;28;20033;-65
2023/10/19 00:43:42;;;;;;;5.13;3.40;;;;;;;20.44;43.44;99592.13;5019833;28;20059;-65
2023/10/19 00:48:49;;;;;;;4.57;3.40;;;;;;;20.42;43.55;99590.72;5024046;28;20052;-65
2023/10/19 00:54:10;;;;;;;4.53;3.55;;;;;;;20.41;43.57;99589.91;5024756;28;20037;-65
2023/10/19 00:56:36;;;;;;;3.90;3.30;;;;;;;20.36;43.35;99573.88;5023233;28;20747;-64
2023/10/19 00:59:14;;;;;;;4.45;3.70;;;;;;;20.34;43.41;99565.34;5024902;28;20033;-65
2023/10/19 01:01:45;;;;;;;4.80;3.45;;;;;;;20.38;43.52;99576.28;5049219;28;20096;-65
2023/10/19 01:04:20;;;;;;;6.07;3.80;;;;;;;20.38;43.56;99574.47;5023801;28;20124;-65
2023/10/19 01:07:00;;;;;;;4.30;3.25;;;;;;;20.38;43.62;99568.34;5021974;28;20041;-64
2023/10/19 01:09:28;;;;;;;3.85;3.25;;;;;;;20.35;43.63;99561.66;5025322;28;20052;-65
2023/10/19 01:11:54;;;;;;;4.03;3.40;;;;;;;20.34;43.57;99553.94;5021184;28;20044;-65
2023/10/19 01:14:23;;;;;;;4.25;3.58;;;;;;;20.33;43.54;99547.84;5025388;28;20044;-65
2023/10/19 01:16:56;;;;;;;4.32;3.60;;;;;;;20.36;43.53;99546.63;5024052;28;20033;-65
2023/10/19 01:19:23;;;;;;;4.45;3.58;;;;;;;20.35;43.65;99551.09;5032575;28;20041;-65
2023/10/19 01:21:53;;;;;;;4.43;3.35;;;;;;;20.32;43.78;99542.78;5022760;28;20065;-64
2023/10/19 01:24:40;;;;;;;;;;;;;;;20.33;43.50;99539.94;5029393;28;20679;-65
2023/10/19 01:27:08;;;;;;;4.05;3.60;;;;;;;20.29;43.66;99532.63;5031990;28;19917;-65
2023/10/19 01:29:37;;;;;;;4.65;3.65;;;;;;;20.27;43.54;99524.09;5028560;28;20044;-65
2023/10/19 01:32:11;;;;;;;4.05;3.60;;;;;;;20.27;43.52;99519.59;5028725;28;20029;-65
2023/10/19 01:34:37;;;;;;;4.25;3.67;;;;;;;20.28;43.59;99518.59;5032325;28;20040;-65
2023/10/19 01:37:04;;;;;;;6.25;3.63;;;;;;;20.30;43.58;99505.19;5031041;28;20499;-65
2023/10/19 01:39:38;;;;;;;5.18;3.80;;;;;;;20.27;43.53;99510.88;5028503;28;20396;-65
2023/10/19 01:42:04;;;;;;;4.10;3.50;;;;;;;20.29;43.53;99525.53;5019947;28;20044;-65
2023/10/19 01:44:31;;;;;;;4.60;3.67;;;;;;;20.30;43.66;99527.13;5031056;28;20045;-65
2023/10/19 01:46:57;;;;;;;5.50;3.72;;;;;;;20.25;43.65;99513.72;5032078;28;20037;-65
2023/10/19 01:49:29;;;;;;;3.58;3.20;;;;;;;20.29;43.68;99514.94;5030174;28;20513;-65
2023/10/19 01:51:55;;;;;;;5.07;3.50;;;;;;;20.30;43.52;99511.28;5021757;28;20029;-65
2023/10/19 01:54:24;;;;;;;4.05;3.65;;;;;;;20.28;43.74;99508.00;5028125;28;20052;-65
2023/10/19 01:56:56;;;;;;;4.60;3.67;;;;;;;20.15;43.66;99489.63;5026080;28;20420;-65
2023/10/19 01:59:26;;;;;;;4.32;3.63;;;;;;;20.27;43.59;99497.66;5014055;28;20052;-65
2023/10/19 02:01:54;;;;;;;4.15;3.50;;;;;;;20.22;43.56;99496.47;5019021;28;20041;-64
2023/10/19 02:04:21;;;;;;;4.22;3.75;;;;;;;20.24;43.63;99488.31;5020184;28;20623;-65
2023/10/19 02:06:48;;;;;;;3.92;3.50;;;;;;;20.21;43.64;99484.28;5020621;28;20502;-65
2023/10/19 02:11:47;;;;;;;4.40;3.53;;;;;;;20.25;43.65;99487.28;5027951;28;20036;-64
2023/10/19 02:14:14;;;;;;;4.13;3.63;;;;;;;20.28;43.55;99484.22;5020469;28;20053;-65
2023/10/19 02:16:47;;;;;;;4.30;3.63;;;;;;;20.27;43.67;99481.78;5022388;28;20079;-65
2023/10/19 02:19:13;;;;;;;4.90;3.88;;;;;;;20.21;43.81;99473.72;5026753;28;20033;-65
2023/10/19 02:21:40;;;;;;;3.90;3.17;;;;;;;20.23;43.73;99476.94;5026082;28;20037;-65
2023/10/19 02:24:14;;;;;;;4.32;3.78;;;;;;;20.25;43.72;99476.72;5026844;28;20033;-65
2023/10/19 02:26:44;;;;;;;5.03;3.88;;;;;;;20.25;43.79;99473.28;5042344;28;20048;-64
2023/10/19 02:29:10;;;;;;;4.72;3.60;;;;;;;20.16;43.76;99457.69;5024562;28;20087;-64
2023/10/19 02:31:42;;;;;;;4.22;3.60;;;;;;;20.22;43.74;99469.22;5026498;28;20037;-65
2023/10/19 02:34:10;;;;;;;4.07;3.60;;;;;;;20.22;44.24;99456.00;5022170;28;20044;-64
2023/10/19 02:36:37;;;;;;;4.07;3.60;;;;;;;20.20;43.72;99466.81;5022639;28;20071;-65
2023/10/19 02:39:11;;;;;;;4.65;3.70;;;;;;;20.22;43.82;99454.19;5027106;28;20041;-65
2023/10/19 02:41:41;;;;;;;4.15;3.50;;;;;;;20.22;43.66;99459.47;5029423;28;20041;-65
2023/10/19 02:46:52;;;;;;;4.35;3.90;;;;;;;20.18;43.95;99438.97;5021959;28;20120;-65
2023/10/19 02:49:18;;;;;;;4.05;3.40;;;;;;;20.21;43.52;99436.69;5022452;28;20132;-65
2023/10/19 02:51:45;;;;;;;4.05;3.42;;;;;;;20.22;43.75;99435.69;5026508;28;20754;-65
2023/10/19 02:54:19;;;;;;;5.38;3.95;;;;;;;20.20;43.64;99434.28;5022910;28;20185;-65
2023/10/19 02:56:49;;;;;;;5.57;3.80;;;;;;;20.24;43.70;99432.81;5024820;28;20061;-65
2023/10/19 02:59:16;;;;;;;4.40;3.60;;;;;;;20.21;43.81;99428.78;5018177;28;20033;-65
2023/10/19 03:01:45;;;;;;;3.97;3.58;;;;;;;20.22;43.88;99435.69;5019160;28;20112;-65
2023/10/19 03:04:15;;;;;;;4.47;3.72;;;;;;;20.22;43.87;99417.16;5026933;28;20048;-65
2023/10/19 03:06:41;;;;;;;5.75;3.63;;;;;;;20.19;43.96;99414.97;5018316;28;20849;-65
2023/10/19 03:09:28;;;;;;;4.28;3.60;;;;;;;20.23;43.79;99413.50;5030606;28;20088;-65
2023/10/19 03:12:09;;;;;;;3.22;2.92;;;;;;;20.22;43.88;99406.59;5022460;28;20041;-65
2023/10/19 03:14:37;;;;;;;4.72;3.70;;;;;;;20.22;43.92;99409.25;5024770;28;20072;-65
2023/10/19 03:17:03;;;;;;;4.75;3.63;;;;;;;20.25;43.81;99412.47;5025878;28;20467;-65
2023/10/19 03:19:29;;;;;;;5.88;3.65;;;;;;;20.19;43.86;99396.47;5026475;28;20045;-65
2023/10/19 03:21:55;;;;;;;4.30;3.30;;;;;;;20.20;43.81;99397.28;5023768;28;20117;-65
2023/10/19 03:24:36;;;;;;;4.50;3.60;;;;;;;20.16;43.82;99388.97;5022882;28;20064;-65
2023/10/19 03:27:16;;;;;;;4.18;3.35;;;;;;;20.22;43.93;99397.88;5022247;28;20041;-65
2023/10/19 03:29:54;;;;;;;4.65;3.58;;;;;;;20.22;43.93;99397.88;5022583;28;20065;-64
2023/10/19 03:32:26;;;;;;;4.32;3.53;;;;;;;20.22;43.88;99398.66;5030838;28;20479;-64
2023/10/19 03:34:55;;;;;;;4.65;3.40;;;;;;;20.22;43.93;99392.56;5020338;28;20048;-65
2023/10/19 03:37:25;;;;;;;4.43;3.40;;;;;;;20.22;44.02;99385.47;5024138;28;20469;-65
2023/10/19 03:39:51;;;;;;;4.45;3.25;;;;;;;20.20;43.91;99384.88;5028605;28;20129;-65
2023/10/19 03:42:18;;;;;;;4.45;3.30;;;;;;;20.22;43.86;99382.00;5021561;28;20397;-65
2023/10/19 03:47:19;;;;;;;4.65;3.55;;;;;;;20.18;43.84;99376.34;5020545;28;20037;-65
2023/10/19 03:49:46;;;;;;;;;;;;;;;20.19;43.97;99377.16;5033355;28;20048;-64
2023/10/19 03:54:41;;;;;;;4.68;3.67;;;;;;;20.16;43.96;99370.47;5024079;28;20124;-65
2023/10/19 03:57:19;;;;;;;5.57;3.75;;;;;;;20.14;43.91;99364.59;5019496;28;20088;-65
2023/10/19 03:59:44;;;;;;;4.60;3.00;;;;;;;20.18;43.84;99375.53;5020871;28;20127;-66
2023/10/19 04:02:13;;;;;;;3.63;3.10;;;;;;;20.18;43.96;99370.25;5027759;28;20033;-66
2023/10/19 04:04:43;;;;;;;4.13;3.42;;;;;;;20.17;43.66;99374.72;5027549;28;20041;-65
2023/10/19 04:07:20;;;;;;;;;;;;;;;20.16;44.05;99367.84;5027611;28;20582;-64
2023/10/19 04:10:09;;;;;;;3.95;3.35;;;;;;;20.14;44.00;99355.88;5026362;28;20426;-65
2023/10/19 04:12:42;;;;;;;3.45;3.15;;;;;;;20.12;44.00;99357.91;5018090;28;20105;-65
2023/10/19 04:15:21;;;;;;;3.20;2.90;;;;;;;20.06;44.05;99346.34;5025164;28;20108;-65
2023/10/19 04:17:48;;;;;;;4.13;3.50;;;;;;;20.17;44.03;99356.22;5028905;28;20041;-65
2023/10/19 04:22:44;;;;;;;3.97;3.42;;;;;;;20.16;43.93;99351.16;5021676;28;20029;-65
2023/10/19 04:25:13;;;;;;;4.20;3.13;;;;;;;20.10;44.05;99342.25;5028950;28;20187;-65
2023/10/19 04:27:41;;;;;;;3.75;3.00;;;;;;;20.14;44.23;99359.31;5027458;28;20479;-65
2023/10/19 04:30:15;;;;;;;3.22;2.92;;;;;;;20.11;43.98;99351.81;5029974;28;20098;-65
2023/10/19 04:32:45;;;;;;;3.70;2.90;;;;;;;20.17;44.13;99353.59;5026490;28;20052;-64
2023/10/19 04:35:13;;;;;;;3.33;3.03;;;;;;;20.16;44.05;99357.25;5030534;28;20052;-64
2023/10/19 04:37:42;;;;;;;4.53;3.60;;;;;;;20.14;44.09;99346.09;5027718;28;20914;-64
2023/10/19 04:40:11;;;;;;;3.65;3.10;;;;;;;20.13;44.04;99348.97;5024961;28;20339;-64
2023/10/19 04:42:39;;;;;;;4.57;3.30;;;;;;;20.16;44.08;99353.81;5027187;28;20033;-65
2023/10/19 04:45:05;;;;;;;3.53;3.03;;;;;;;20.17;43.99;99352.78;5025430;28;20543;-65
2023/10/19 04:47:35;;;;;;;4.03;3.20;;;;;;;20.15;44.07;99347.72;5019554;28;20038;-65
2023/10/19 04:50:05;;;;;;;3.72;3.25;;;;;;;20.13;44.10;99354.25;5026085;28;20073;-65
2023/10/19 04:52:31;;;;;;;;;;;;;;;20.15;43.99;99350.34;5022016;28;20139;-64
2023/10/19 04:54:57;;;;;;;4.78;3.00;;;;;;;20.14;44.21;99361.16;5023770;28;20383;-65
2023/10/19 04:57:22;;;;;;;3.47;3.17;;;;;;;20.12;44.11;99350.78;5021625;28;20076;-65
2023/10/19 04:59:48;;;;;;;3.72;2.92;;;;;;;20.09;44.18;99351.19;5023594;28;20048;-65
2023/10/19 05:02:14;;;;;;;3.85;2.88;;;;;;;20.13;44.13;99362.97;5025670;28;20039;-66
2023/10/19 05:04:40;;;;;;;3.30;2.83;;;;;;;20.12;44.16;99358.72;5032946;28;20764;-64
2023/10/19 05:07:07;;;;;;;3.60;3.08;;;;;;;20.12;44.19;99358.72;5027276;28;20045;-65
2023/10/19 05:09:38;;;;;;;4.07;3.08;;;;;;;20.12;44.25;99353.44;5033038;28;20049;-65
2023/10/19 05:12:04;;;;;;;3.67;2.97;;;;;;;20.11;44.23;99358.94;5029526;28;20029;-65
2023/10/19 05:14:30;;;;;;;3.80;2.80;;;;;;;20.11;44.28;99356.31;5023026;28;20050;-65
2023/10/19 05:16:55;;;;;;;3.33;2.80;;;;;;;20.06;44.06;99354.28;5030399;28;20048;-65
2023/10/19 05:19:21;;;;;;;3.67;2.70;;;;;;;20.10;44.16;99355.47;5027287;28;20424;-65
2023/10/19 05:21:46;;;;;;;3.42;2.80;;;;;;;20.10;44.11;99355.47;5017136;28;20054;-65
2023/10/19 05:24:13;;;;;;;2.65;2.45;;;;;;;20.06;44.31;99353.47;5023579;28;20045;-65
2023/10/19 05:26:38;;;;;;;3.10;2.60;;;;;;;20.04;44.33;99353.69;5023917;28;20053;-65
2023/10/19 05:29:04;;;;;;;3.38;2.80;;;;;;;20.04;44.46;99366.09;5028407;28;20055;-65
2023/10/19 05:31:31;;;;;;;3.22;2.63;;;;;;;20.01;44.46;99354.13;5028362;28;20075;-65
2023/10/19 05:33:56;;;;;;;3.40;2.95;;;;;;;20.03;44.38;99354.72;5025778;28;20041;-65
2023/10/19 05:36:22;;;;;;;2.92;2.58;;;;;;;20.02;44.41;99360.22;5028342;28;20052;-65
2023/10/19 05:38:47;;;;;;;4.28;2.80;;;;;;;20.03;44.46;99356.56;5027899;28;20041;-65
2023/10/19 05:41:14;;;;;;;3.47;2.90;;;;;;;19.98;44.44;99349.28;5025602;28;20052;-65
2023/10/19 05:43:40;;;;;;;3.20;2.80;;;;;;;20.00;44.49;99357.00;5018522;28;20477;-65
2023/10/19 05:46:05;;;;;;;3.60;2.80;;;;;;;19.86;44.51;99337.78;5027295;28;20041;-64
2023/10/19 05:48:31;;;;;;;4.47;3.42;;;;;;;19.99;44.51;99358.81;5026462;28;20530;-65
2023/10/19 05:50:57;;;;;;;3.28;2.70;;;;;;;20.01;44.53;99354.13;5020804;28;20068;-65
2023/10/19 05:53:22;;;;;;;2.67;2.47;;;;;;;20.01;44.49;99358.59;5026517;28;20091;-65
2023/10/19 05:55:49;;;;;;;2.80;2.50;;;;;;;20.01;44.51;99358.59;5035020;28;20040;-65
2023/10/19 05:58:15;;;;;;;3.22;2.92;;;;;;;19.98;44.45;99359.03;5025376;28;20064;-65
2023/10/19 06:00:41;;;;;;;2.58;2.30;;;;;;;20.02;44.53;99363.69;5024143;28;20036;-65
2023/10/19 06:03:07;;;;;;;2.55;2.33;;;;;;;20.00;44.49;99363.09;5022198;28;20053;-65
2023/10/19 06:05:33;;;;;;;2.55;2.35;;;;;;;20.01;44.56;99362.06;5018355;28;20037;-65
2023/10/19 06:07:59;;;;;;;2.90;2.50;;;;;;;19.99;44.69;99361.47;5013628;28;20132;-65
2023/10/19 06:10:27;;;;;;;3.75;3.10;;;;;;;20.01;44.53;99370.00;5026189;28;20041;-65
2023/10/19 06:12:53;;;;;;;2.80;2.60;;;;;;;20.01;44.63;99364.69;5025882;28;20056;-64
2023/10/19 06:15:21;;;;;;;2.85;2.30;;;;;;;20.05;44.48;99370.34;5026583;28;20038;-65
2023/10/19 06:17:47;;;;;;;2.58;2.38;;;;;;;20.17;44.24;99366.00;5025233;28;20120;-64
2023/10/19 06:20:24;;;;;;;2.40;2.20;;;;;;;20.59;43.71;99374.16;5019824;28;20041;-65
2023/10/19 06:22:55;;;;;;;2.70;2.50;;;;;;;21.56;42.32;99375.03;5021667;28;20036;-65
2023/10/19 06:25:22;;;;;;;2.78;2.47;;;;;;;22.10;40.89;99375.88;5025667;28;20541;-65
2023/10/19 06:27:50;;;;;;;2.50;2.30;;;;;;;22.15;40.98;99379.44;5031303;28;20741;-65
2023/10/19 06:30:18;;;;;;;2.38;2.17;;;;;;;22.07;40.90;99373.66;5020726;28;20042;-65
2023/10/19 06:32:52;;;;;;;2.78;2.55;;;;;;;21.92;41.45;99379.41;5025619;28;21163;-65
2023/10/19 06:35:18;;;;;;;2.80;2.20;;;;;;;21.78;41.66;99388.56;5023777;28;20479;-65
2023/10/19 06:37:45;;;;;;;2.78;2.08;;;;;;;21.52;42.20;99364.06;5020291;28;20042;-65
2023/10/19 06:40:11;;;;;;;2.63;2.28;;;;;;;21.51;42.24;99382.84;5019629;28;20494;-65
2023/10/19 06:42:38;;;;;;;2.75;2.47;;;;;;;21.35;42.79;99389.56;5020890;28;20041;-65
2023/10/19 06:45:05;;;;;;;2.42;2.22;;;;;;;21.26;42.81;99393.56;5021916;28;20083;-65
2023/10/19 06:47:30;;;;;;;2.70;2.50;;;;;;;21.12;42.91;99396.34;5018155;28;20048;-65
2023/10/19 06:49:56;;;;;;;2.38;2.13;;;;;;;21.10;43.07;99392.31;5023628;28;20045;-64
2023/10/19 06:52:22;;;;;;;2.40;2.20;;;;;;;21.04;43.29;99398.50;5025762;28;20041;-65
2023/10/19 06:54:48;;;;;;;2.58;2.10;;;;;;;21.02;43.28;99403.22;5029741;28;20608;-65
2023/10/19 06:57:13;;;;;;;2.38;2.15;;;;;;;20.92;43.52;99403.72;5028305;28;20034;-65
2023/10/19 06:59:39;;;;;;;2.05;1.95;;;;;;;20.98;43.58;99408.09;5021475;28;20483;-64
2023/10/19 07:02:07;;;;;;;2.13;1.92;;;;;;;20.94;43.55;99409.59;5016853;28;20041;-65
2023/10/19 07:04:33;;;;;;;2.28;2.08;;;;;;;20.94;43.72;99420.19;5025821;28;20057;-65
2023/10/19 07:06:58;;;;;;;2.30;2.10;;;;;;;20.89;43.66;99417.38;5031917;28;20049;-65
2023/10/19 07:09:26;;;;;;;2.30;2.10;;;;;;;20.89;43.83;99416.59;5027334;28;20041;-65
2023/10/19 07:11:54;;;;;;;2.58;2.10;;;;;;;20.80;43.90;99411.56;5019862;28;20085;-65
2023/10/19 07:14:22;;;;;;;2.10;1.90;;;;;;;20.86;43.70;99414.38;5019199;28;20045;-64
2023/10/19 07:16:51;;;;;;;2.80;2.10;;;;;;;20.81;44.04;99410.53;5025684;28;21059;-65
2023/10/19 07:19:17;;;;;;;2.47;2.08;;;;;;;20.77;43.83;99417.31;5027796;28;20069;-65
2023/10/19 07:21:48;;;;;;;2.10;1.90;;;;;;;20.79;43.72;99417.88;5019988;28;20105;-65
2023/10/19 07:24:14;;;;;;;2.47;2.20;;;;;;;20.76;43.84;99412.22;5019961;28;20042;-65
2023/10/19 07:29:43;;;;;;;1.90;1.77;;;;;;;20.74;44.05;99414.28;5000221;28;20060;-65
2023/10/19 07:32:11;;;;;;;1.73;1.63;;;;;;;20.69;43.98;99414.16;5013015;28;20595;-64
2023/10/19 07:34:37;;;;;;;1.90;1.80;;;;;;;20.67;44.04;99416.22;5020866;28;20045;-65
2023/10/19 07:37:03;;;;;;;2.05;1.85;;;;;;;20.68;44.17;99418.63;5023750;28;20127;-65
2023/10/19 07:39:29;;;;;;;2.22;2.03;;;;;;;20.61;44.22;99417.88;5012361;28;20149;-65
2023/10/19 07:41:58;;;;;;;1.63;1.52;;;;;;;20.60;44.29;99423.38;5025989;28;20068;-65
2023/10/19 07:44:24;;;;;;;2.13;1.92;;;;;;;20.62;44.23;99424.78;5019450;28;20057;-65
2023/10/19 07:46:49;;;;;;;1.90;1.80;;;;;;;20.59;44.37;99427.84;5019417;28;20726;-65
2023/10/19 07:49:15;;;;;;;2.05;1.73;;;;;;;20.51;44.27;99407.00;5023006;28;20071;-65
2023/10/19 07:51:45;;;;;;;1.98;1.75;;;;;;;20.50;44.55;99414.13;5021185;28;20814;-65
2023/10/19 07:54:12;;;;;;;1.88;1.77;;;;;;;20.58;44.34;99417.50;5019688;28;20049;-65
2023/10/19 07:56:37;;;;;;;1.90;1.77;;;;;;;20.62;44.08;99422.13;5017903;28;20099;-65
2023/10/19 07:59:03;;;;;;;2.08;1.88;;;;;;;20.60;44.30;99426.84;5023394;28;20073;-65
2023/10/19 08:01:29;;;;;;;1.92;1.70;;;;;;;20.58;44.41;99423.59;5019825;28;20077;-66
2023/10/19 08:03:54;;;;;;;1.90;1.80;;;;;;;20.60;44.29;99432.13;5028244;28;20081;-66
2023/10/19 08:06:20;;;;;;;1.88;1.77;;;;;;;20.60;44.15;99428.66;5028408;28;20041;-65
2023/10/19 08:08:46;;;;;;;1.85;1.75;;;;;;;20.67;44.36;99432.06;5022738;28;20267;-65
2023/10/19 08:11:12;;;;;;;1.95;1.70;;;;;;;20.55;44.13;99404.72;5019143;28;20046;-66
2023/10/19 08:13:39;;;;;;;1.77;1.67;;;;;;;20.73;44.12;99433.84;5024347;28;20057;-65
2023/10/19 08:16:07;;;;;;;2.08;1.67;;;;;;;20.80;43.88;99440.66;5029990;28;20517;-65
2023/10/19 08:18:35;;;;;;;1.63;1.52;;;;;;;20.81;43.94;99438.84;5021666;28;20037;-65
2023/10/19 08:21:01;;;;;;;2.03;1.80;;;;;;;20.78;43.83;99429.50;5029088;28;20110;-65
2023/10/19 08:23:27;;;;;;;1.70;1.60;;;;;;;20.80;44.01;99443.31;5019779;28;20044;-66
2023/10/19 08:25:54;;;;;;;1.80;1.70;;;;;;;20.84;44.02;99434.97;5029850;28;20048;-66
2023/10/19 08:28:22;;;;;;;1.58;1.48;;;;;;;20.75;44.08;99442.38;5023792;28;20044;-66
2023/10/19 08:30:56;;;;;;;3.40;1.60;;;;;;;20.76;43.98;99436.03;5024991;28;20033;-66
2023/10/19 08:33:26;;;;;;;1.70;1.60;;;;;;;20.71;44.15;99436.72;5015278;28;20057;-66
2023/10/19 08:35:53;;;;;;;1.75;1.50;;;;;;;20.72;44.18;99456.84;5026450;28;20072;-65
2023/10/19 08:38:19;;;;;;;1.60;1.50;;;;;;;20.72;44.36;99450.75;5027754;28;20092;-65
2023/10/19 08:40:47;;;;;;;1.65;1.50;;;;;;;20.72;43.99;99448.09;5031526;28;20287;-66
2023/10/19 08:43:17;;;;;;;1.80;1.70;;;;;;;20.68;44.43;99446.91;5023943;28;20087;-66
2023/10/19 08:45:43;;;;;;;1.75;1.42;;;;;;;20.66;44.51;99441.84;5028700;28;20045;-66
2023/10/19 08:48:09;;;;;;;1.83;1.50;;;;;;;20.64;44.42;99456.28;5023405;28;20041;-66
2023/10/19 08:50:34;;;;;;;1.42;1.33;;;;;;;20.65;44.42;99453.47;5040030;28;20035;-66
2023/10/19 08:53:05;;;;;;;1.40;1.30;;;;;;;20.65;44.51;99450.81;5023510;28;20056;-66
2023/10/19 08:55:31;;;;;;;1.40;1.30;;;;;;;20.68;44.08;99454.84;5029429;28;20437;-66
2023/10/19 08:57:59;;;;;;;3.40;1.42;;;;;;;20.65;44.27;99455.28;5025953;28;20391;-66
2023/10/19 09:00:25;;;;;;;1.30;1.20;;;;;;;20.61;44.36;99457.53;5022705;28;20045;-66
2023/10/19 09:02:56;;;;;;;1.60;1.50;;;;;;;20.51;44.32;99438.72;5021301;28;20056;-65
2023/10/19 09:05:22;;;;;;;1.48;1.38;;;;;;;20.66;44.03;99456.91;5027876;28;20135;-66
2023/10/19 09:07:54;;;;;;;1.40;1.30;;;;;;;20.75;43.94;99445.81;5020284;28;20044;-66
2023/10/19 09:10:25;;;;;;;1.25;1.15;;;;;;;21.00;43.45;99439.66;5026334;28;20061;-65
2023/10/19 09:13:07;;;;;;;1.30;1.20;;;;;;;21.24;42.98;99441.44;5022742;28;20053;-65
2023/10/19 09:15:33;;;;;;;1.48;1.38;;;;;;;21.26;42.81;99438.59;5025124;28;20029;-66
2023/10/19 09:18:18;;;;;;;2.15;1.40;;;;;;;21.22;43.03;99458.56;5027970;28;20075;-66
2023/10/19 09:20:52;;;;;;;1.40;1.30;;;;;;;21.11;43.42;99446.84;5023192;28;20060;-66
2023/10/19 09:23:27;;;;;;;1.40;1.30;;;;;;;21.12;43.29;99451.13;5019295;28;20030;-66
2023/10/19 09:25:53;;;;;;;1.63;1.17;;;;;;;21.10;43.39;99450.53;5029631;28;20044;-66
2023/10/19 09:28:19;;;;;;;1.10;1.10;;;;;;;21.08;43.24;99448.13;5023937;28;20037;-66
2023/10/19 09:30:46;;;;;;;1.58;1.20;;;;;;;21.05;43.36;99437.97;5021843;28;20115;-66
2023/10/19 09:33:17;;;;;;;1.50;1.35;;;;;;;21.02;43.46;99435.78;5019412;28;20139;-66
2023/10/19 09:35:52;;;;;;;1.15;1.05;;;;;;;21.00;43.50;99435.16;5026060;28;20394;-65
2023/10/19 09:38:21;;;;;;;1.10;1.00;;;;;;;20.96;43.55;99441.94;5022170;28;20045;-66
2023/10/19 09:40:54;;;;;;;2.17;1.33;;;;;;;20.94;43.73;99433.41;5025584;28;20462;-66
2023/10/19 09:43:46;;;;;;;1.15;1.10;;;;;;;20.93;43.60;99436.28;5018078;28;20391;-65
2023/10/19 09:46:18;;;;;;;1.45;1.23;;;;;;;20.93;43.70;99436.28;5022424;28;20037;-65
2023/10/19 09:48:47;;;;;;;0.98;0.98;;;;;;;20.85;43.76;99424.16;5025937;28;20095;-66
2023/10/19 09:51:16;;;;;;;0.83;0.83;;;;;;;20.86;43.98;99433.72;5027855;28;20041;-65
2023/10/19 09:53:45;;;;;;;1.45;1.33;;;;;;;20.84;43.65;99429.66;5021477;28;20471;-65
2023/10/19 09:56:17;;;;;;;1.23;1.13;;;;;;;20.85;43.65;99426.00;5018948;28;20037;-66
2023/10/19 09:58:49;;;;;;;1.10;1.00;;;;;;;20.82;44.02;99427.22;5022822;28;20043;-66
2023/10/19 10:01:15;;;;;;;1.13;1.10;;;;;;;20.83;44.01;99428.06;5028333;28;20394;-66
2023/10/19 10:03:49;;;;;;;1.17;1.08;;;;;;;20.80;43.94;99423.97;5025805;28;20049;-66
2023/10/19 10:06:20;;;;;;;1.02;0.95;;;;;;;20.74;43.93;99411.66;5031917;28;20041;-66
2023/10/19 10:08:47;;;;;;;1.20;1.10;;;;;;;20.74;43.84;99415.09;5032530;28;20534;-65
2023/10/19 10:11:19;;;;;;;1.45;1.35;;;;;;;20.76;44.01;99434.19;5024241;28;20041;-66
2023/10/19 10:13:45;;;;;;;2.33;1.30;;;;;;;20.77;43.87;99433.19;5027984;28;20036;-65
2023/10/19 10:16:17;;;;;;;1.30;1.20;;;;;;;20.74;43.98;99432.81;5028702;28;20107;-66
2023/10/19 10:18:46;;;;;;;1.10;1.00;;;;;;;20.75;44.00;99435.22;5013916;28;20067;-66
2023/10/19 10:21:24;;;;;;;1.33;1.00;;;;;;;20.72;43.86;99414.50;5014627;28;20073;-65
2023/10/19 10:23:53;;;;;;;1.27;1.10;;;;;;;20.72;44.03;99416.34;5024980;28;20030;-66
2023/10/19 10:26:24;;;;;;;1.48;1.25;;;;;;;20.74;44.17;99417.75;5023545;28;20049;-66
2023/10/19 10:29:09;;;;;;;1.38;1.27;;;;;;;20.72;44.01;99417.16;5029266;28;20033;-66
2023/10/19 10:31:40;;;;;;;1.77;1.67;;;;;;;20.77;43.98;99421.78;5019913;28;20037;-66
2023/10/19 10:34:08;;;;;;;1.42;1.33;;;;;;;20.76;43.93;99414.88;5024593;28;20101;-66
2023/10/19 10:37:05;;;;;;;1.98;1.13;;;;;;;20.74;44.07;99414.28;5016470;28;20030;-66
2023/10/19 10:39:31;;;;;;;1.45;1.35;;;;;;;20.73;43.94;99405.53;5016560;28;20403;-66
2023/10/19 10:42:00;;;;;;;1.48;1.38;;;;;;;20.71;44.04;99409.44;5022278;28;20108;-66
2023/10/19 10:44:46;;;;;;;1.48;1.38;;;;;;;20.72;43.79;99403.94;5023059;28;20491;-65
2023/10/19 10:47:22;;;;;;;1.25;1.15;;;;;;;20.73;44.07;99402.91;5024221;28;20498;-66
2023/10/19 10:49:58;;;;;;;0.98;0.98;;;;;;;20.83;43.84;99401.59;5023639;28;20048;-65
2023/10/19 10:52:25;;;;;;;1.42;1.20;;;;;;;20.98;43.46;99399.38;5020348;28;20041;-66
2023/10/19 10:54:50;;;;;;;1.10;1.00;;;;;;;21.06;43.17;99391.16;5025440;28;21062;-66
2023/10/19 10:57:16;;;;;;;1.30;1.20;;;;;;;21.08;43.39;99403.13;5017878;28;20029;-66
2023/10/19 10:59:41;;;;;;;1.25;1.15;;;;;;;21.09;43.26;99406.56;5021709;28;20041;-66
2023/10/19 11:02:21;;;;;;;0.88;0.88;;;;;;;21.08;43.21;99408.41;5022644;28;20057;-66
2023/10/19 11:04:47;;;;;;;1.30;1.20;;;;;;;21.07;43.34;99416.56;5025528;28;20770;-65
2023/10/19 11:07:22;;;;;;;1.23;1.10;;;;;;;21.01;43.62;99418.28;5019523;28;20033;-66
2023/10/19 11:09:47;;;;;;;1.27;1.17;;;;;;;21.03;43.27;99428.63;5023869;28;20040;-65
2023/10/19 11:12:15;;;;;;;1.80;1.42;;;;;;;20.94;43.76;99417.53;5016516;28;20092;-66
2023/10/19 11:15:01;;;;;;;1.25;1.15;;;;;;;20.96;43.77;99414.66;5017464;28;20128;-65
2023/10/19 11:17:31;;;;;;;2.55;1.33;;;;;;;20.96;43.56;99419.94;5023074;28;20621;-66
2023/10/19 11:19:58;;;;;;;2.17;1.52;;;;;;;20.94;43.92;99416.72;5019411;28;20045;-66
2023/10/19 11:22:26;;;;;;;1.23;1.10;;;;;;;20.88;43.82;99409.69;5018069;28;20095;-65
2023/10/19 11:24:53;;;;;;;2.10;1.23;;;;;;;20.88;43.74;99421.06;5019832;28;20052;-65
2023/10/19 11:27:28;;;;;;;1.40;1.30;;;;;;;20.90;43.75;99423.50;5022648;28;20436;-64
2023/10/19 11:29:59;;;;;;;2.30;1.60;;;;;;;20.87;43.81;99416.81;5022800;28;20049;-64
2023/10/19 11:32:25;;;;;;;1.52;1.40;;;;;;;20.85;43.76;99421.50;5013795;28;20029;-65
2023/10/19 11:34:55;;;;;;;1.30;1.20;;;;;;;20.84;43.77;99416.44;5020617;28;20387;-65
2023/10/19 11:37:20;;;;;;;1.33;1.23;;;;;;;20.72;43.96;99396.00;5024354;28;20120;-65
2023/10/19 11:39:46;;;;;;;2.05;1.25;;;;;;;20.80;43.92;99411.56;5022941;28;20049;-65
2023/10/19 11:42:12;;;;;;;1.25;1.13;;;;;;;20.77;44.04;99405.91;5025008;28;20513;-65
2023/10/19 11:44:39;;;;;;;1.23;1.20;;;;;;;20.78;44.00;99410.16;5019489;28;20121;-65
2023/10/19 11:47:04;;;;;;;1.27;1.17;;;;;;;20.81;43.87;99415.03;5024306;28;20155;-66
2023/10/19 11:49:30;;;;;;;1.30;1.20;;;;;;;20.83;43.78;99415.63;5022747;28;20049;-65
2023/10/19 11:51:57;;;;;;;1.90;1.40;;;;;;;20.95;43.60;99415.69;5023800;28;20032;-66
2023/10/19 11:54:23;;;;;;;1.67;1.15;;;;;;;20.98;43.64;99412.59;5021228;28;20038;-66
2023/10/19 11:56:49;;;;;;;1.55;1.20;;;;;;;20.98;43.59;99412.59;5021833;28;20093;-66
2023/10/19 11:59:15;;;;;;;1.40;1.30;;;;;;;20.91;43.65;99402.09;5018025;28;20045;-65
2023/10/19 12:01:42;;;;;;;1.95;1.58;;;;;;;20.83;43.85;99388.38;5026729;28;20132;-65
2023/10/19 12:04:09;;;;;;;1.67;1.58;;;;;;;20.86;43.94;99399.31;5025672;28;20072;-65
2023/10/19 12:06:35;;;;;;;1.42;1.33;;;;;;;20.85;43.70;99395.06;5024897;28;20044;-65
2023/10/19 12:09:11;;;;;;;1.10;1.10;;;;;;;20.91;43.83;99407.38;5025774;28;20038;-65